Time,TemperatureF,DewpointF,PressureIn,WindDirection,WindDirectionDegrees,WindSpeedMPH,WindSpeedGustMPH,Humidity,HourlyPrecipIn,Conditions,Clouds,dailyrainin,SoftwareType,DateUTC
2013-11-03 00:14:00,50.5,26.0,29.90,NNE,27,0.0,0.0,38,0.00,,,0.00,weatherlink.com 1.10,2013-11-03 07:14:00,
2013-11-03 00:30:00,51.8,25.0,29.89,NE,46,0.0,3.0,36,0.00,,,0.00,weatherlink.com 1.10,2013-11-03 07:30:00,
2013-11-03 00:45:00,52.7,25.0,29.88,NNE,27,0.0,3.0,34,0.00,,,0.00,weatherlink.com 1.10,2013-11-03 07:45:00,
2013-11-03 01:00:00,50.4,27.0,29.89,North,1,0.0,1.0,41,0.00,,,0.00,weatherlink.com 1.10,2013-11-03 08:00:00,
2013-11-03 01:15:00,49.9,24.0,29.88,North,357,0.0,0.0,37,0.00,,,0.00,weatherlink.com 1.10,2013-11-03 08:15:00,
2013-11-03 01:30:00,52.4,25.0,29.87,North,9,0.0,2.0,34,0.00,,,0.00,weatherlink.com 1.10,2013-11-03 08:30:00,
2013-11-03 01:45:00,50.8,26.0,29.87,NE,37,0.0,0.0,39,0.00,,,0.00,weatherlink.com 1.10,2013-11-03 08:45:00,
2013-11-03 01:00:00,49.3,26.0,29.87,North,6,0.0,0.0,41,0.00,,,0.00,weatherlink.com 1.10,2013-11-03 09:00:00,
2013-11-03 01:15:00,48.3,26.0,29.87,NNE,27,0.0,0.0,42,0.00,,,0.00,weatherlink.com 1.10,2013-11-03 09:15:00,
2013-11-03 01:30:00,48.8,25.0,29.86,North,5,0.0,0.0,40,0.00,,,0.00,weatherlink.com 1.10,2013-11-03 09:30:00,
2013-11-03 01:45:00,48.5,26.0,29.86,NNE,12,0.0,0.0,41,0.00,,,0.00,weatherlink.com 1.10,2013-11-03 09:45:00,
2013-11-03 02:00:00,48.1,26.0,29.86,NNW,345,0.0,0.0,42,0.00,,,0.00,weatherlink.com 1.10,2013-11-03 10:00:00,
2013-11-03 02:15:00,47.7,25.0,29.86,NNE,26,0.0,0.0,42,0.00,,,0.00,weatherlink.com 1.10,2013-11-03 10:15:00,
2013-11-03 02:30:00,47.5,25.0,29.86,NNW,337,0.0,0.0,42,0.00,,,0.00,weatherlink.com 1.10,2013-11-03 10:30:00,
2013-11-03 02:45:00,47.0,25.0,29.85,North,358,0.0,0.0,42,0.00,,,0.00,weatherlink.com 1.10,2013-11-03 10:45:00,
2013-11-03 03:00:00,46.2,25.0,29.85,NNE,14,0.0,0.0,43,0.00,,,0.00,weatherlink.com 1.10,2013-11-03 11:00:00,
2013-11-03 03:15:00,46.8,25.0,29.85,North,5,0.0,1.0,43,0.00,,,0.00,weatherlink.com 1.10,2013-11-03 11:15:00,
2013-11-03 03:30:00,46.5,25.0,29.85,NNE,13,0.0,1.0,44,0.00,,,0.00,weatherlink.com 1.10,2013-11-03 11:30:00,
2013-11-03 03:45:00,46.0,26.0,29.84,NNE,22,0.0,0.0,45,0.00,,,0.00,weatherlink.com 1.10,2013-11-03 11:45:00,
2013-11-03 04:00:00,46.4,25.0,29.85,North,9,0.0,1.0,44,0.00,,,0.00,weatherlink.com 1.10,2013-11-03 12:00:00,
2013-11-03 04:15:00,45.9,25.0,29.84,North,358,0.0,0.0,45,0.00,,,0.00,weatherlink.com 1.10,2013-11-03 12:15:00,
2013-11-03 04:30:00,45.5,26.0,29.85,NNE,20,0.0,0.0,46,0.00,,,0.00,weatherlink.com 1.10,2013-11-03 12:30:00,
2013-11-03 04:45:00,45.8,26.0,29.84,NNE,23,0.0,0.0,46,0.00,,,0.00,weatherlink.com 1.10,2013-11-03 12:45:00,
2013-11-03 05:00:00,45.8,26.0,29.85,NNE,18,0.0,0.0,46,0.00,,,0.00,weatherlink.com 1.10,2013-11-03 13:00:00,
2013-11-03 05:15:00,45.8,26.0,29.85,North,4,0.0,0.0,46,0.00,,,0.00,weatherlink.com 1.10,2013-11-03 13:15:00,
2013-11-03 05:30:00,45.8,26.0,29.85,North,350,0.0,0.0,47,0.00,,,0.00,weatherlink.com 1.10,2013-11-03 13:30:00,
2013-11-03 05:45:00,45.9,26.0,29.85,NNE,12,0.0,0.0,46,0.00,,,0.00,weatherlink.com 1.10,2013-11-03 13:45:00,
2013-11-03 06:00:00,45.8,26.0,29.85,NNW,345,0.0,0.0,46,0.00,,,0.00,weatherlink.com 1.10,2013-11-03 14:00:00,
2013-11-03 06:15:00,46.1,26.0,29.85,North,1,0.0,0.0,45,0.00,,,0.00,weatherlink.com 1.10,2013-11-03 14:15:00,
2013-11-03 06:30:00,46.2,26.0,29.85,NNE,15,0.0,0.0,46,0.00,,,0.00,weatherlink.com 1.10,2013-11-03 14:30:00,
2013-11-03 06:45:00,46.0,27.0,29.86,NNE,12,0.0,0.0,47,0.00,,,0.00,weatherlink.com 1.10,2013-11-03 14:45:00,
2013-11-03 07:00:00,47.2,27.0,29.87,North,8,0.0,0.0,46,0.00,,,0.00,weatherlink.com 1.10,2013-11-03 15:00:00,
2013-11-03 07:15:00,48.1,28.0,29.87,NNW,343,0.0,0.0,45,0.00,,,0.00,weatherlink.com 1.10,2013-11-03 15:15:00,
2013-11-03 07:30:00,48.5,28.0,29.87,NNE,18,0.0,0.0,46,0.00,,,0.00,weatherlink.com 1.10,2013-11-03 15:30:00,
2013-11-03 07:45:00,49.1,28.0,29.88,NNW,347,0.0,1.0,45,0.00,,,0.00,weatherlink.com 1.10,2013-11-03 15:45:00,
2013-11-03 08:00:00,49.6,28.0,29.88,NE,50,0.0,0.0,44,0.00,,,0.00,weatherlink.com 1.10,2013-11-03 16:00:00,
2013-11-03 08:15:00,49.7,28.0,29.88,NNE,27,0.0,0.0,43,0.00,,,0.00,weatherlink.com 1.10,2013-11-03 16:15:00,
2013-11-03 08:30:00,50.4,28.0,29.88,NNE,27,0.0,0.0,43,0.00,,,0.00,weatherlink.com 1.10,2013-11-03 16:30:00,
2013-11-03 08:45:00,50.5,29.0,29.88,NNW,338,0.0,1.0,44,0.00,,,0.00,weatherlink.com 1.10,2013-11-03 16:45:00,
2013-11-03 09:00:00,51.0,30.0,29.87,NNE,32,0.0,0.0,44,0.00,,,0.00,weatherlink.com 1.10,2013-11-03 17:00:00,
2013-11-03 09:15:00,51.6,30.0,29.87,North,5,0.0,1.0,44,0.00,,,0.00,weatherlink.com 1.10,2013-11-03 17:15:00,
2013-11-03 09:30:00,52.4,32.0,29.87,SW,229,0.0,1.0,47,0.00,,,0.00,weatherlink.com 1.10,2013-11-03 17:30:00,
2013-11-03 09:45:00,53.3,34.0,29.88,SSW,211,0.0,1.0,49,0.00,,,0.00,weatherlink.com 1.10,2013-11-03 17:45:00,
2013-11-03 10:00:00,54.2,34.0,29.87,SSE,153,0.0,1.0,46,0.00,,,0.00,weatherlink.com 1.10,2013-11-03 18:00:00,
2013-11-03 10:15:00,54.3,36.0,29.87,SW,217,0.0,1.0,50,0.00,,,0.00,weatherlink.com 1.10,2013-11-03 18:15:00,
2013-11-03 10:30:00,54.2,37.0,29.87,SSW,204,0.0,1.0,52,0.00,,,0.00,weatherlink.com 1.10,2013-11-03 18:30:00,
2013-11-03 10:45:00,55.2,38.0,29.87,NE,56,0.0,1.0,53,0.00,,,0.00,weatherlink.com 1.10,2013-11-03 18:45:00,
2013-11-03 11:00:00,54.9,36.0,29.88,SW,215,0.0,1.0,49,0.00,,,0.00,weatherlink.com 1.10,2013-11-03 19:00:00,
2013-11-03 11:15:00,55.4,37.0,29.87,NNW,345,0.0,1.0,50,0.00,,,0.00,weatherlink.com 1.10,2013-11-03 19:15:00,
2013-11-03 11:30:00,55.8,38.0,29.86,West,262,0.0,1.0,51,0.00,,,0.00,weatherlink.com 1.10,2013-11-03 19:30:00,
2013-11-03 11:45:00,56.1,37.0,29.86,WSW,256,0.0,0.0,49,0.00,,,0.00,weatherlink.com 1.10,2013-11-03 19:45:00,
2013-11-03 12:00:00,56.4,36.0,29.85,NNW,345,0.0,1.0,47,0.00,,,0.00,weatherlink.com 1.10,2013-11-03 20:00:00,
2013-11-03 12:15:00,56.7,36.0,29.85,North,357,0.0,2.0,47,0.00,,,0.00,weatherlink.com 1.10,2013-11-03 20:15:00,
2013-11-03 12:30:00,56.6,36.0,29.84,NW,316,0.0,0.0,47,0.00,,,0.00,weatherlink.com 1.10,2013-11-03 20:30:00,
2013-11-03 12:45:00,56.2,35.0,29.84,NW,317,0.0,0.0,45,0.00,,,0.00,weatherlink.com 1.10,2013-11-03 20:45:00,
2013-11-03 13:00:00,55.8,33.0,29.83,NNE,22,0.0,1.0,43,0.00,,,0.00,weatherlink.com 1.10,2013-11-03 21:00:00,
2013-11-03 13:16:00,56.1,34.0,29.83,WSW,239,0.0,1.0,44,0.00,,,0.00,weatherlink.com 1.10,2013-11-03 21:16:00,
2013-11-03 13:30:00,56.0,34.0,29.84,North,355,0.0,1.0,44,0.00,,,0.00,weatherlink.com 1.10,2013-11-03 21:30:00,
2013-11-03 13:46:00,55.9,35.0,29.84,NNE,27,0.0,0.0,45,0.00,,,0.00,weatherlink.com 1.10,2013-11-03 21:46:00,
2013-11-03 14:01:00,55.8,36.0,29.84,SSW,205,0.0,1.0,47,0.00,,,0.00,weatherlink.com 1.10,2013-11-03 22:01:00,
2013-11-03 14:16:00,55.3,36.0,29.83,SE,127,0.0,0.0,48,0.00,,,0.00,weatherlink.com 1.10,2013-11-03 22:16:00,
2013-11-03 14:31:00,55.3,35.0,29.83,NW,324,0.0,0.0,47,0.00,,,0.00,weatherlink.com 1.10,2013-11-03 22:31:00,
2013-11-03 14:46:00,54.9,36.0,29.83,NNE,25,0.0,0.0,49,0.00,,,0.00,weatherlink.com 1.10,2013-11-03 22:46:00,
2013-11-03 15:01:00,54.9,37.0,29.83,SW,232,0.0,0.0,51,0.00,,,0.00,weatherlink.com 1.10,2013-11-03 23:01:00,
2013-11-03 15:16:00,54.1,36.0,29.82,SSW,204,0.0,0.0,51,0.00,,,0.00,weatherlink.com 1.10,2013-11-03 23:16:00,
2013-11-03 15:31:00,53.7,36.0,29.82,ENE,77,0.0,0.0,52,0.00,,,0.00,weatherlink.com 1.10,2013-11-03 23:31:00,
2013-11-03 15:46:00,53.1,36.0,29.82,WNW,287,0.0,0.0,52,0.00,,,0.00,weatherlink.com 1.10,2013-11-03 23:46:00,
2013-11-03 16:01:00,52.4,36.0,29.82,West,264,0.0,0.0,55,0.00,,,0.00,weatherlink.com 1.10,2013-11-04 00:01:00,
2013-11-03 16:16:00,51.2,36.0,29.81,NNE,18,0.0,0.0,57,0.00,,,0.00,weatherlink.com 1.10,2013-11-04 00:16:00,
2013-11-03 16:31:00,50.2,37.0,29.81,NNE,27,0.0,0.0,60,0.00,,,0.00,weatherlink.com 1.10,2013-11-04 00:31:00,
2013-11-03 16:46:00,48.7,36.0,29.81,North,9,0.0,0.0,63,0.00,,,0.00,weatherlink.com 1.10,2013-11-04 00:46:00,
2013-11-03 17:01:00,46.6,36.0,29.82,North,9,0.0,0.0,68,0.00,,,0.00,weatherlink.com 1.10,2013-11-04 01:01:00,
2013-11-03 17:16:00,45.4,36.0,29.82,North,9,0.0,0.0,69,0.00,,,0.00,weatherlink.com 1.10,2013-11-04 01:16:00,
2013-11-03 17:31:00,43.6,35.0,29.82,North,9,0.0,0.0,73,0.00,,,0.00,weatherlink.com 1.10,2013-11-04 01:31:00,
2013-11-03 17:46:00,42.5,35.0,29.82,North,11,0.0,0.0,75,0.00,,,0.00,weatherlink.com 1.10,2013-11-04 01:46:00,
2013-11-03 18:01:00,41.6,34.0,29.83,NNE,18,0.0,0.0,75,0.00,,,0.00,weatherlink.com 1.10,2013-11-04 02:01:00,
2013-11-03 18:16:00,41.3,34.0,29.83,NNE,15,0.0,0.0,76,0.00,,,0.00,weatherlink.com 1.10,2013-11-04 02:16:00,
2013-11-03 18:31:00,40.7,34.0,29.84,NNE,15,0.0,0.0,76,0.00,,,0.00,weatherlink.com 1.10,2013-11-04 02:31:00,
2013-11-03 18:46:00,41.9,35.0,29.84,NNE,15,0.0,0.0,76,0.00,,,0.00,weatherlink.com 1.10,2013-11-04 02:46:00,
2013-11-03 19:01:00,40.8,34.0,29.84,NNE,19,0.0,0.0,77,0.00,,,0.00,weatherlink.com 1.10,2013-11-04 03:01:00,
2013-11-03 19:16:00,40.5,34.0,29.84,NNE,16,0.0,0.0,77,0.00,,,0.00,weatherlink.com 1.10,2013-11-04 03:16:00,
2013-11-03 19:31:00,40.3,34.0,29.84,NNE,23,0.0,0.0,78,0.00,,,0.00,weatherlink.com 1.10,2013-11-04 03:31:00,
2013-11-03 19:46:00,41.2,34.0,29.84,NNE,30,0.0,1.0,74,0.00,,,0.00,weatherlink.com 1.10,2013-11-04 03:46:00,
2013-11-03 20:02:00,39.9,32.0,29.84,NNE,18,0.0,0.0,72,0.00,,,0.00,weatherlink.com 1.10,2013-11-04 04:02:00,
2013-11-03 20:17:00,40.3,31.0,29.84,NNE,18,0.0,0.0,70,0.00,,,0.00,weatherlink.com 1.10,2013-11-04 04:17:00,
2013-11-03 20:32:00,42.0,32.0,29.85,NNE,18,0.0,0.0,69,0.00,,,0.00,weatherlink.com 1.10,2013-11-04 04:32:00,
2013-11-03 20:47:00,41.7,31.0,29.84,North,1,0.0,0.0,67,0.00,,,0.00,weatherlink.com 1.10,2013-11-04 04:47:00,
2013-11-03 21:02:00,40.4,33.0,29.84,NNE,20,0.0,0.0,74,0.00,,,0.00,weatherlink.com 1.10,2013-11-04 05:02:00,
2013-11-03 21:17:00,39.2,31.0,29.84,NNE,20,0.0,0.0,72,0.00,,,0.00,weatherlink.com 1.10,2013-11-04 05:17:00,
2013-11-03 21:32:00,39.3,30.0,29.84,NNE,27,0.0,0.0,70,0.00,,,0.00,weatherlink.com 1.10,2013-11-04 05:32:00,
2013-11-03 21:47:00,39.4,30.0,29.85,NNE,19,0.0,0.0,68,0.00,,,0.00,weatherlink.com 1.10,2013-11-04 05:47:00,
2013-11-03 22:02:00,38.6,29.0,29.84,NNE,25,0.0,0.0,69,0.00,,,0.00,weatherlink.com 1.10,2013-11-04 06:02:00,
2013-11-03 22:17:00,38.3,30.0,29.84,NNE,23,0.0,0.0,71,0.00,,,0.00,weatherlink.com 1.10,2013-11-04 06:17:00,
2013-11-03 22:32:00,38.3,29.0,29.83,NNE,18,0.0,0.0,68,0.00,,,0.00,weatherlink.com 1.10,2013-11-04 06:32:00,
2013-11-03 22:47:00,38.7,28.0,29.83,NNE,18,0.0,0.0,66,0.00,,,0.00,weatherlink.com 1.10,2013-11-04 06:47:00,
2013-11-03 23:02:00,39.5,29.0,29.83,NNE,19,0.0,0.0,65,0.00,,,0.00,weatherlink.com 1.10,2013-11-04 07:02:00,
2013-11-03 23:17:00,40.3,29.0,29.83,NNE,20,0.0,0.0,65,0.00,,,0.00,weatherlink.com 1.10,2013-11-04 07:17:00,
2013-11-03 23:32:00,41.7,31.0,29.84,NNE,25,0.0,0.0,66,0.00,,,0.00,weatherlink.com 1.10,2013-11-04 07:32:00,
2013-11-03 23:47:00,42.0,33.0,29.83,NNE,26,0.0,0.0,70,0.00,,,0.00,weatherlink.com 1.10,2013-11-04 07:47:00,